This is the latest recevied weather packets stored in our database for station/object 9M2ABD-1. If no packets are shown the sender has not sent any weather packets the latest 1 day(s).
| Time | Temp. | Humidity | Pressure | Rain* | Wind** | Luminosity | Snow |
|---|---|---|---|---|---|---|---|
| 1778090388 | 28.89° C | 81% | 1008.9 hPa | - | - | - | - |
| 1778084428 | 28.89° C | 81% | 1010 hPa | - | - | - | - |
| 1778081987 | 29.44° C | 82% | 1009.9 hPa | - | - | - | - |
| 1778080787 | 29.44° C | 82% | 1010 hPa | - | - | - | - |
| 1778079587 | 29.44° C | 84% | 1010 hPa | - | - | - | - |
| 1778078387 | 29.44° C | 82% | 1010 hPa | - | - | - | - |
| 1778077187 | 29.44° C | 83% | 1009.8 hPa | - | - | - | - |
| 1778068788 | 29.44° C | 83% | 1008.2 hPa | - | - | - | - |
| 1778067588 | 29.44° C | 83% | 1007.9 hPa | - | - | - | - |
| 1778066388 | 29.44° C | 83% | 1007.4 hPa | - | - | - | - |
| 1778065188 | 28.89° C | 83% | 1007.5 hPa | - | - | - | - |
| 1778063988 | 28.89° C | 84% | 1007.1 hPa | - | - | - | - |
| 1778057987 | 28.89° C | 81% | 1006.4 hPa | - | - | - | - |
| 1778055625 | 28.89° C | 80% | 1006.5 hPa | - | - | - | - |
| 1778051986 | 29.44° C | 76% | 1008.2 hPa | - | - | - | - |
| 1778050786 | 30° C | 75% | 1007.6 hPa | - | - | - | - |
| 1778049586 | 30° C | 75% | 1008.1 hPa | - | - | - | - |
| 1778048386 | 30.56° C | 73% | 1008.3 hPa | - | - | - | - |
| 1778047186 | 31.11° C | 70% | 1008.7 hPa | - | - | - | - |
| 1778045986 | 31.11° C | 69% | 1008.2 hPa | - | - | - | - |
| 1778044786 | 31.67° C | 67% | 1008.5 hPa | - | - | - | - |
| 1778043586 | 31.67° C | 67% | 1008.5 hPa | - | - | - | - |
| 1778042386 | 32.22° C | 69% | 1008.9 hPa | - | - | - | - |
| 1778041186 | 31.67° C | 70% | 1008.9 hPa | - | - | - | - |
| 1778037585 | 30.56° C | 74% | 1009.8 hPa | - | - | - | - |
* Rain since midnight (hover to see other rain measurements)
** Current wind speed in m/s (hover to see current wind gust speed)